createdAt,value
2023-11-08T00:01:43.839Z,6.38
2023-11-08T00:04:11.282Z,6.40
2023-11-08T00:06:38.728Z,6.40
2023-11-08T00:09:06.451Z,6.39
2023-11-08T00:11:33.651Z,6.40
2023-11-08T00:14:00.757Z,6.36
2023-11-08T00:16:28.748Z,6.30
2023-11-08T00:18:55.927Z,6.25
2023-11-08T00:21:25.158Z,6.24
2023-11-08T00:23:52.778Z,6.22
2023-11-08T00:26:19.874Z,6.19
2023-11-08T00:28:49.672Z,6.16
2023-11-08T00:31:17.372Z,6.13
2023-11-08T00:33:44.463Z,6.15
2023-11-08T00:36:11.466Z,6.17
2023-11-08T00:38:39.973Z,6.14
2023-11-08T00:41:06.983Z,6.18
2023-11-08T00:43:34.888Z,6.23
2023-11-08T00:46:03.833Z,6.25
2023-11-08T00:48:31.030Z,6.27
2023-11-08T00:50:58.142Z,6.28
2023-11-08T00:53:25.540Z,6.29
2023-11-08T00:55:52.638Z,6.29
2023-11-08T00:58:19.865Z,6.27
2023-11-08T01:00:47.111Z,6.28
2023-11-08T01:03:14.470Z,6.31
2023-11-08T01:05:43.133Z,6.34
2023-11-08T01:08:13.189Z,6.33
2023-11-08T01:10:42.071Z,6.31
2023-11-08T01:13:10.611Z,6.22
2023-11-08T01:15:41.243Z,6.20
2023-11-08T01:18:08.788Z,6.17
2023-11-08T01:20:35.893Z,6.14
2023-11-08T01:23:05.331Z,6.13
2023-11-08T01:25:32.355Z,6.10
2023-11-08T01:27:59.748Z,6.10
2023-11-08T01:30:26.905Z,6.08
2023-11-08T01:32:56.205Z,6.06
2023-11-08T01:35:24.034Z,6.07
2023-11-08T01:37:51.042Z,6.08
2023-11-08T01:40:19.671Z,6.08
2023-11-08T01:42:47.645Z,6.06
2023-11-08T01:45:15.106Z,6.04
2023-11-08T01:47:42.304Z,6.05
2023-11-08T01:50:10.687Z,6.02
2023-11-08T01:52:38.728Z,6.01
2023-11-08T01:55:06.154Z,5.98
2023-11-08T01:57:33.346Z,5.99
2023-11-08T02:00:01.049Z,5.97
2023-11-08T02:02:29.206Z,6.00
2023-11-08T02:04:56.418Z,6.00
2023-11-08T02:07:23.905Z,6.00
2023-11-08T02:09:51.150Z,5.99
2023-11-08T02:12:18.201Z,6.01
2023-11-08T02:15:05.116Z,5.97
2023-11-08T02:17:45.447Z,5.99
2023-11-08T02:20:12.923Z,5.98
2023-11-08T02:22:39.828Z,5.96
2023-11-08T02:25:07.197Z,5.98
2023-11-08T02:27:34.311Z,5.98
2023-11-08T02:30:01.318Z,5.98
2023-11-08T02:32:35.329Z,5.96
2023-11-08T02:35:02.446Z,5.86
2023-11-08T02:37:31.999Z,5.83
2023-11-08T02:39:59.299Z,5.77
2023-11-08T02:42:26.329Z,5.74
2023-11-08T02:44:53.375Z,5.76
2023-11-08T02:47:20.698Z,5.75
2023-11-08T02:49:48.734Z,5.76
2023-11-08T02:52:16.835Z,5.75
2023-11-08T02:54:43.899Z,5.75
2023-11-08T02:57:10.960Z,5.80
2023-11-08T02:59:39.817Z,5.80
2023-11-08T03:02:07.450Z,5.82
2023-11-08T03:04:34.798Z,5.84
2023-11-08T03:07:07.769Z,5.85
2023-11-08T03:09:35.678Z,5.86
2023-11-08T03:12:04.149Z,5.89
2023-11-08T03:14:31.438Z,5.91
2023-11-08T03:17:01.559Z,5.90
2023-11-08T03:19:28.750Z,5.90
2023-11-08T03:21:55.803Z,5.89
2023-11-08T03:24:22.966Z,5.88
2023-11-08T03:26:50.745Z,5.84
2023-11-08T03:29:21.588Z,5.78
2023-11-08T03:31:49.076Z,5.79
2023-11-08T03:34:16.269Z,5.77
2023-11-08T03:36:44.458Z,5.79
2023-11-08T03:39:11.822Z,5.80
2023-11-08T03:41:39.117Z,5.82
2023-11-08T03:44:07.135Z,5.80
2023-11-08T03:46:34.346Z,5.78
2023-11-08T03:49:02.766Z,5.74
2023-11-08T03:51:30.660Z,5.73
2023-11-08T03:53:58.170Z,5.71
2023-11-08T03:56:28.545Z,5.68
2023-11-08T03:58:55.674Z,5.70
2023-11-08T04:01:22.764Z,5.69
2023-11-08T04:03:49.890Z,5.66
2023-11-08T04:06:17.023Z,5.65
2023-11-08T04:08:44.138Z,5.62
2023-11-08T04:11:11.200Z,5.64
2023-11-08T04:13:38.196Z,5.59
2023-11-08T04:16:05.892Z,5.60
2023-11-08T04:18:34.667Z,5.60
2023-11-08T04:21:05.109Z,5.63
2023-11-08T04:23:32.266Z,5.59
2023-11-08T04:25:59.356Z,5.58
2023-11-08T04:28:26.405Z,5.57
2023-11-08T04:30:53.540Z,5.63
2023-11-08T04:33:20.680Z,5.65
2023-11-08T04:35:47.691Z,5.66
2023-11-08T04:38:15.333Z,5.67
2023-11-08T04:40:42.375Z,5.68
2023-11-08T04:43:09.454Z,5.67
2023-11-08T04:45:37.942Z,5.69
2023-11-08T04:48:05.911Z,5.67
2023-11-08T04:50:33.300Z,5.65
2023-11-08T04:53:00.788Z,5.62
2023-11-08T04:55:28.672Z,5.71
2023-11-08T04:57:55.782Z,5.64
2023-11-08T05:00:23.109Z,5.69
2023-11-08T05:02:50.215Z,5.68
2023-11-08T05:05:17.417Z,5.65
2023-11-08T05:07:45.254Z,5.67
2023-11-08T05:10:14.627Z,5.67
2023-11-08T05:12:41.724Z,5.68
2023-11-08T05:15:10.679Z,5.71
2023-11-08T05:17:38.849Z,5.70
2023-11-08T05:20:10.317Z,5.68
2023-11-08T05:22:40.090Z,5.71
2023-11-08T05:25:07.765Z,5.65
2023-11-08T05:27:36.140Z,5.71
2023-11-08T05:30:06.037Z,5.70
2023-11-08T05:32:33.209Z,5.72
2023-11-08T05:35:00.906Z,5.71
2023-11-08T05:37:28.028Z,5.75
2023-11-08T05:39:55.444Z,5.72
2023-11-08T05:42:24.283Z,5.79
2023-11-08T05:44:52.041Z,5.79
2023-11-08T05:47:19.073Z,5.80
2023-11-08T05:49:46.306Z,5.82
2023-11-08T05:52:14.793Z,5.83
2023-11-08T05:54:41.892Z,5.76
2023-11-08T05:57:08.946Z,5.84
2023-11-08T05:59:36.932Z,5.83
2023-11-08T06:02:04.910Z,5.83
2023-11-08T06:04:33.603Z,5.74
2023-11-08T06:07:01.004Z,5.80
2023-11-08T06:09:29.360Z,5.81
2023-11-08T06:11:56.499Z,5.87
2023-11-08T06:14:23.849Z,5.88
2023-11-08T06:16:51.640Z,5.89
2023-11-08T06:19:24.145Z,5.89
2023-11-08T06:21:51.682Z,5.89
2023-11-08T06:24:18.730Z,5.87
2023-11-08T06:26:45.867Z,5.86
2023-11-08T06:29:13.043Z,5.94
2023-11-08T06:31:41.693Z,5.91
2023-11-08T06:34:11.686Z,5.93
2023-11-08T06:36:38.901Z,5.97
2023-11-08T06:39:06.217Z,5.99
2023-11-08T06:41:33.327Z,6.01
2023-11-08T06:44:00.371Z,6.03
2023-11-08T06:46:27.837Z,6.12
2023-11-08T06:48:59.042Z,6.17
2023-11-08T06:51:26.482Z,6.26
2023-11-08T06:53:53.595Z,6.41
2023-11-08T06:56:20.934Z,6.54
2023-11-08T06:58:48.038Z,6.51
2023-11-08T07:01:15.562Z,6.46
2023-11-08T07:03:42.966Z,6.45
2023-11-08T07:06:10.405Z,6.48
2023-11-08T07:08:38.438Z,6.48
2023-11-08T07:11:08.218Z,6.49
2023-11-08T07:13:35.660Z,6.46
2023-11-08T07:16:03.938Z,6.57
2023-11-08T07:18:31.317Z,6.71
2023-11-08T07:20:59.471Z,6.73
2023-11-08T07:23:26.541Z,6.75
2023-11-08T07:25:55.847Z,6.79
2023-11-08T07:28:23.130Z,6.90
2023-11-08T07:30:50.278Z,6.94
2023-11-08T07:33:19.269Z,6.99
2023-11-08T07:35:48.613Z,7.01
2023-11-08T07:38:16.319Z,7.00
2023-11-08T07:40:43.741Z,6.91
2023-11-08T07:43:10.968Z,6.88
2023-11-08T07:45:38.142Z,6.87
2023-11-08T07:48:05.586Z,6.85
2023-11-08T07:50:32.699Z,6.82
2023-11-08T07:52:59.738Z,6.81
2023-11-08T07:55:26.911Z,6.87
2023-11-08T07:57:54.101Z,6.90
2023-11-08T08:00:24.108Z,6.85
2023-11-08T08:02:51.579Z,6.80
2023-11-08T08:05:19.089Z,6.80
2023-11-08T08:07:46.461Z,6.89
2023-11-08T08:10:14.122Z,6.90
2023-11-08T08:12:47.705Z,6.89
2023-11-08T08:15:18.101Z,6.95
2023-11-08T08:17:47.212Z,6.93
2023-11-08T08:20:14.698Z,6.97
2023-11-08T08:22:41.846Z,7.01
2023-11-08T08:25:18.324Z,7.02
2023-11-08T08:27:46.650Z,7.01
2023-11-08T08:30:16.454Z,6.95
2023-11-08T08:32:46.962Z,7.01
2023-11-08T08:35:14.867Z,6.99
2023-11-08T08:37:42.490Z,6.95
2023-11-08T08:40:12.586Z,6.95
2023-11-08T08:42:41.308Z,6.93
2023-11-08T08:45:11.807Z,6.90
2023-11-08T08:48:01.780Z,6.94
2023-11-08T08:50:30.737Z,6.87
2023-11-08T08:52:58.124Z,6.88
2023-11-08T08:55:26.199Z,6.85
2023-11-08T08:57:55.137Z,6.90
2023-11-08T09:00:24.472Z,6.99
2023-11-08T09:02:52.820Z,7.05
2023-11-08T09:05:23.790Z,7.09
2023-11-08T09:07:52.796Z,7.16
2023-11-08T09:10:22.919Z,7.26
2023-11-08T09:12:51.384Z,7.37
2023-11-08T09:15:21.435Z,7.41
2023-11-08T09:17:48.921Z,7.31
2023-11-08T09:20:18.004Z,7.26
2023-11-08T09:22:45.620Z,7.30
2023-11-08T09:25:14.742Z,7.23
2023-11-08T09:27:42.226Z,7.26
2023-11-08T09:30:11.057Z,7.40
2023-11-08T09:32:40.356Z,7.43
2023-11-08T09:35:12.713Z,7.48
2023-11-08T09:37:42.510Z,7.63
2023-11-08T09:40:12.371Z,7.87
2023-11-08T09:42:40.744Z,7.88
2023-11-08T09:45:13.075Z,7.93
2023-11-08T09:47:45.106Z,7.90
2023-11-08T09:50:16.379Z,7.85
2023-11-08T09:52:44.279Z,7.68
2023-11-08T09:55:15.402Z,7.60
2023-11-08T09:57:47.009Z,7.55
2023-11-08T10:00:16.464Z,7.57
2023-11-08T10:02:44.021Z,7.60
2023-11-08T10:05:13.953Z,7.59
2023-11-08T10:07:44.907Z,7.61
2023-11-08T10:10:12.254Z,7.68
2023-11-08T10:13:03.268Z,7.73
2023-11-08T10:15:32.015Z,7.78
2023-11-08T10:19:32.162Z,7.84
2023-11-08T10:21:02.739Z,7.90
2023-11-08T10:23:32.378Z,8.05
2023-11-08T10:26:19.781Z,8.21
2023-11-08T10:29:09.072Z,8.00
2023-11-08T10:31:38.850Z,7.98
2023-11-08T10:34:10.744Z,7.92
2023-11-08T10:36:39.704Z,7.86
2023-11-08T10:39:08.262Z,7.87
2023-11-08T10:41:38.467Z,7.92
2023-11-08T10:44:09.220Z,8.01
2023-11-08T10:46:37.130Z,8.05
2023-11-08T10:49:07.794Z,8.04
2023-11-08T10:51:40.736Z,8.09
2023-11-08T10:54:11.667Z,8.15
2023-11-08T10:56:39.575Z,8.00
2023-11-08T10:59:11.124Z,8.05
2023-11-08T11:01:41.182Z,8.09
2023-11-08T11:04:16.578Z,8.12
2023-11-08T11:06:44.998Z,8.07
2023-11-08T11:09:12.593Z,8.09
2023-11-08T11:11:47.121Z,7.95
2023-11-08T11:14:29.362Z,8.11
2023-11-08T11:17:20.361Z,8.13
2023-11-08T11:19:49.062Z,8.06
2023-11-08T11:22:23.557Z,8.03
2023-11-08T11:24:51.877Z,8.03
2023-11-08T11:27:37.064Z,7.98
2023-11-08T11:30:27.982Z,7.92
2023-11-08T11:32:59.031Z,7.90
2023-11-08T11:35:35.202Z,7.86
2023-11-08T11:38:08.375Z,7.77
2023-11-08T11:40:45.186Z,7.68
2023-11-08T11:43:33.241Z,7.68
2023-11-08T11:46:06.417Z,7.66
2023-11-08T11:48:34.305Z,7.65
2023-11-08T11:51:03.108Z,7.60
2023-11-08T11:53:31.932Z,7.61
2023-11-08T11:56:07.080Z,7.63
2023-11-08T11:58:34.682Z,7.62
2023-11-08T12:01:02.036Z,7.67
2023-11-08T12:03:29.681Z,7.60
2023-11-08T12:06:02.056Z,7.60
2023-11-08T12:08:29.763Z,7.57
2023-11-08T12:11:14.704Z,7.59
2023-11-08T12:13:55.725Z,7.54
2023-11-08T12:16:23.156Z,7.50
2023-11-08T12:18:52.942Z,7.50
2023-11-08T12:21:21.228Z,7.48
2023-11-08T12:23:50.444Z,7.47
2023-11-08T12:26:18.211Z,7.46
2023-11-08T12:28:47.088Z,7.43
2023-11-08T12:31:19.797Z,7.44
2023-11-08T12:33:47.276Z,7.45
2023-11-08T12:36:14.490Z,7.47
2023-11-08T12:38:41.855Z,7.38
2023-11-08T12:41:09.742Z,7.37
2023-11-08T12:43:59.063Z,7.32
2023-11-08T12:46:40.055Z,7.23
2023-11-08T12:49:20.821Z,7.19
2023-11-08T12:51:48.613Z,7.12
2023-11-08T12:54:17.198Z,7.08
2023-11-08T12:56:45.050Z,7.06
2023-11-08T12:59:12.253Z,7.03
2023-11-08T13:01:39.931Z,6.98
2023-11-08T13:04:08.955Z,6.92
2023-11-08T13:06:47.366Z,6.81
2023-11-08T13:09:15.542Z,6.71
2023-11-08T13:11:42.996Z,6.55
2023-11-08T13:14:10.141Z,6.48
2023-11-08T13:16:37.935Z,6.42
2023-11-08T13:19:05.418Z,6.30
2023-11-08T13:21:33.414Z,6.30
2023-11-08T13:24:05.740Z,6.33
2023-11-08T13:26:36.171Z,6.40
2023-11-08T13:29:04.201Z,6.49
2023-11-08T13:31:31.805Z,6.51
2023-11-08T13:34:00.150Z,6.58
2023-11-08T13:36:29.216Z,6.61
2023-11-08T13:38:57.669Z,6.60
2023-11-08T13:41:28.621Z,6.59
2023-11-08T13:43:55.837Z,6.63
2023-11-08T13:46:28.653Z,6.57
2023-11-08T13:48:57.160Z,6.64
2023-11-08T13:51:24.703Z,6.64
2023-11-08T13:53:52.504Z,6.67
2023-11-08T13:56:20.007Z,6.66
2023-11-08T13:58:51.863Z,6.65
2023-11-08T14:01:46.086Z,6.64
2023-11-08T14:04:15.375Z,6.64
2023-11-08T14:06:48.367Z,6.63
2023-11-08T14:09:21.689Z,6.63
2023-11-08T14:11:49.150Z,6.61
2023-11-08T14:14:17.141Z,6.61
2023-11-08T14:16:47.767Z,6.64
2023-11-08T14:19:14.882Z,6.57
2023-11-08T14:21:53.007Z,6.62
2023-11-08T14:24:21.197Z,6.53
2023-11-08T14:26:50.904Z,6.59
2023-11-08T14:29:27.593Z,6.65
2023-11-08T14:32:01.057Z,6.59
2023-11-08T14:34:29.319Z,6.59
2023-11-08T14:36:57.665Z,6.61
2023-11-08T14:39:27.513Z,6.61
2023-11-08T14:41:55.381Z,6.58
2023-11-08T14:44:22.976Z,6.51
2023-11-08T14:46:51.030Z,6.51
2023-11-08T14:49:18.715Z,6.55
2023-11-08T14:51:51.127Z,6.49
2023-11-08T14:54:18.490Z,6.47
2023-11-08T14:56:47.856Z,6.45
2023-11-08T15:02:00.077Z,6.43
2023-11-08T15:04:29.697Z,6.34
2023-11-08T15:06:57.523Z,6.46
2023-11-08T15:09:53.431Z,6.33
2023-11-08T15:12:21.043Z,6.43
2023-11-08T15:14:49.642Z,6.43
2023-11-08T15:17:16.752Z,6.45
2023-11-08T15:19:45.323Z,6.44
2023-11-08T15:22:13.028Z,6.45
2023-11-08T15:24:52.921Z,6.42
2023-11-08T15:27:20.356Z,6.38
2023-11-08T15:29:51.957Z,6.44
2023-11-08T15:32:19.429Z,6.44
2023-11-08T15:34:46.886Z,6.44
2023-11-08T15:37:14.279Z,6.39
2023-11-08T15:39:41.985Z,6.35
2023-11-08T15:42:09.218Z,6.38
2023-11-08T15:44:36.598Z,6.36
2023-11-08T15:47:04.163Z,6.35
2023-11-08T15:49:32.284Z,6.31
2023-11-08T15:52:00.500Z,6.35
2023-11-08T15:54:28.859Z,6.38
2023-11-08T15:56:56.646Z,6.36
2023-11-08T15:59:24.541Z,6.32
2023-11-08T16:01:52.760Z,6.31
2023-11-08T16:04:23.932Z,6.38
2023-11-08T16:06:52.906Z,6.29
2023-11-08T16:09:20.802Z,6.36
2023-11-08T16:11:48.313Z,6.40
2023-11-08T16:14:18.748Z,6.43
2023-11-08T16:16:46.335Z,6.39
2023-11-08T16:19:14.412Z,6.23
2023-11-08T16:21:49.489Z,6.30
2023-11-08T16:24:16.667Z,6.21
2023-11-08T16:26:49.329Z,6.19
2023-11-08T16:29:50.009Z,6.13
2023-11-08T16:32:34.212Z,5.96
2023-11-08T16:34:58.585Z,5.97
2023-11-08T16:37:27.352Z,5.89
2023-11-08T16:39:54.834Z,5.82
2023-11-08T16:42:23.780Z,5.75
2023-11-08T16:45:01.596Z,5.68
2023-11-08T16:47:35.274Z,5.59
2023-11-08T16:50:02.711Z,5.50
2023-11-08T16:52:32.479Z,5.43
2023-11-08T16:55:05.611Z,5.35
2023-11-08T16:57:33.874Z,5.24
2023-11-08T17:00:01.121Z,5.22
2023-11-08T17:02:29.104Z,5.21
2023-11-08T17:04:58.818Z,5.29
2023-11-08T17:07:40.296Z,5.27
2023-11-08T17:10:13.414Z,5.33
2023-11-08T17:12:43.636Z,5.29
2023-11-08T17:15:19.467Z,5.43
2023-11-08T17:17:47.939Z,5.31
2023-11-08T17:20:17.405Z,5.42
2023-11-08T17:22:44.684Z,5.48
2023-11-08T17:25:12.192Z,5.56
2023-11-08T17:27:45.734Z,5.61
2023-11-08T17:30:21.003Z,5.67
2023-11-08T17:32:48.355Z,5.70
2023-11-08T17:35:15.925Z,5.76
2023-11-08T17:37:45.015Z,5.72
2023-11-08T17:40:12.878Z,5.81
2023-11-08T17:42:40.465Z,5.85
2023-11-08T17:45:13.298Z,5.74
2023-11-08T17:47:46.123Z,5.85
2023-11-08T17:50:13.650Z,5.80
2023-11-08T17:52:43.845Z,5.76
2023-11-08T17:55:11.880Z,5.78
2023-11-08T17:57:41.561Z,5.72
2023-11-08T18:00:12.635Z,5.74
2023-11-08T18:02:41.542Z,5.75
2023-11-08T18:05:09.530Z,5.60
2023-11-08T18:07:37.292Z,5.61
2023-11-08T18:10:08.118Z,5.59
2023-11-08T18:12:35.447Z,5.52
2023-11-08T18:15:05.993Z,5.57
2023-11-08T18:17:34.071Z,5.52
2023-11-08T18:20:04.183Z,5.48
2023-11-08T18:22:34.967Z,5.44
2023-11-08T18:25:04.787Z,5.46
2023-11-08T18:27:33.842Z,5.39
2023-11-08T18:30:01.985Z,5.40
2023-11-08T18:32:33.051Z,5.43
2023-11-08T18:35:00.503Z,5.41
2023-11-08T18:37:27.917Z,5.38
2023-11-08T18:39:56.794Z,5.37
2023-11-08T18:42:23.956Z,5.37
2023-11-08T18:44:51.133Z,5.39
2023-11-08T18:47:20.021Z,5.39
2023-11-08T18:49:48.449Z,5.36
2023-11-08T18:52:15.604Z,5.38
2023-11-08T18:54:43.023Z,5.36
2023-11-08T18:57:10.287Z,5.33
2023-11-08T18:59:37.794Z,5.30
2023-11-08T19:02:07.220Z,5.23
2023-11-08T19:04:34.694Z,5.33
2023-11-08T19:07:01.924Z,5.32
2023-11-08T19:09:34.425Z,5.30
2023-11-08T19:12:02.189Z,5.22
2023-11-08T19:14:29.647Z,5.25
2023-11-08T19:16:58.832Z,5.23
2023-11-08T19:19:26.793Z,5.24
2023-11-08T19:21:54.003Z,5.21
2023-11-08T19:24:21.291Z,5.18
2023-11-08T19:26:48.612Z,5.18
2023-11-08T19:29:16.782Z,5.15
2023-11-08T19:31:44.031Z,5.12
2023-11-08T19:34:11.430Z,5.15
2023-11-08T19:36:38.562Z,5.08
2023-11-08T19:39:05.728Z,5.15
2023-11-08T19:41:35.404Z,5.18
2023-11-08T19:44:02.686Z,5.18
2023-11-08T19:46:29.982Z,5.21
2023-11-08T19:48:58.037Z,5.16
2023-11-08T19:51:26.181Z,5.17
2023-11-08T19:53:53.830Z,5.06
2023-11-08T19:56:20.869Z,5.18
2023-11-08T19:58:49.700Z,5.15
2023-11-08T20:01:17.231Z,5.12
2023-11-08T20:03:44.916Z,5.08
2023-11-08T20:06:12.335Z,5.05
2023-11-08T20:08:39.783Z,5.10
2023-11-08T20:11:13.840Z,5.06
2023-11-08T20:13:43.639Z,5.12
2023-11-08T20:16:11.195Z,5.05
2023-11-08T20:18:38.505Z,5.07
2023-11-08T20:21:06.182Z,5.04
2023-11-08T20:23:34.051Z,5.06
2023-11-08T20:26:02.336Z,4.98
2023-11-08T20:28:30.262Z,5.02
2023-11-08T20:31:04.352Z,4.97
2023-11-08T20:33:32.199Z,4.99
2023-11-08T20:36:00.880Z,5.04
2023-11-08T20:38:29.337Z,5.02
2023-11-08T20:40:57.391Z,5.04
2023-11-08T20:43:25.561Z,4.93
2023-11-08T20:45:54.184Z,5.04
2023-11-08T20:48:21.393Z,5.00
2023-11-08T20:50:48.557Z,4.99
2023-11-08T20:53:15.657Z,5.00
2023-11-08T20:55:45.283Z,4.96
2023-11-08T20:58:12.483Z,4.99
2023-11-08T21:00:39.853Z,5.03
2023-11-08T21:03:07.017Z,5.07
2023-11-08T21:05:34.686Z,4.98
2023-11-08T21:08:02.611Z,5.07
2023-11-08T21:10:29.950Z,5.09
2023-11-08T21:12:57.473Z,5.10
2023-11-08T21:15:27.479Z,4.97
2023-11-08T21:17:57.622Z,5.03
2023-11-08T21:20:24.844Z,5.01
2023-11-08T21:22:55.267Z,5.01
2023-11-08T21:25:23.176Z,5.07
2023-11-08T21:27:53.965Z,4.98
2023-11-08T21:30:21.639Z,5.10
2023-11-08T21:32:49.224Z,5.08
2023-11-08T21:35:17.011Z,5.09
2023-11-08T21:37:44.748Z,5.05
2023-11-08T21:40:12.626Z,5.03
2023-11-08T21:42:40.249Z,4.99
2023-11-08T21:45:08.768Z,5.03
2023-11-08T21:47:37.302Z,5.01
2023-11-08T21:50:04.994Z,4.98
2023-11-08T21:52:33.219Z,4.92
2023-11-08T21:55:00.336Z,4.87
2023-11-08T21:57:27.446Z,4.93
2023-11-08T21:59:57.100Z,4.87
2023-11-08T22:02:24.532Z,4.84
2023-11-08T22:04:51.618Z,4.77
2023-11-08T22:07:18.769Z,4.83
2023-11-08T22:09:46.686Z,4.82
2023-11-08T22:12:13.766Z,4.78
2023-11-08T22:14:40.987Z,4.78
2023-11-08T22:17:08.292Z,4.76
2023-11-08T22:19:35.462Z,4.67
2023-11-08T22:22:03.743Z,4.67
2023-11-08T22:24:31.444Z,4.66
2023-11-08T22:26:58.769Z,4.68
2023-11-08T22:29:26.003Z,4.50
2023-11-08T22:31:54.424Z,4.55
2023-11-08T22:34:23.086Z,4.54
2023-11-08T22:36:50.448Z,4.46
2023-11-08T22:39:17.634Z,4.48
2023-11-08T22:41:47.782Z,4.41
2023-11-08T22:44:15.384Z,4.38
2023-11-08T22:46:44.327Z,4.36
2023-11-08T22:49:11.857Z,4.37
2023-11-08T22:51:39.174Z,4.36
2023-11-08T22:54:09.552Z,4.37
2023-11-08T22:56:37.148Z,4.33
2023-11-08T22:59:04.395Z,4.25
2023-11-08T23:01:34.305Z,4.19
2023-11-08T23:04:05.059Z,4.17
2023-11-08T23:06:33.842Z,4.24
2023-11-08T23:09:06.507Z,4.27
2023-11-08T23:11:34.923Z,4.28
2023-11-08T23:14:01.987Z,4.15
2023-11-08T23:16:29.238Z,4.20
2023-11-08T23:18:57.029Z,4.16
2023-11-08T23:21:24.371Z,4.21
2023-11-08T23:23:52.772Z,4.16
2023-11-08T23:26:20.779Z,4.09
2023-11-08T23:28:48.193Z,4.10
2023-11-08T23:31:16.361Z,4.14
2023-11-08T23:33:43.403Z,4.16
2023-11-08T23:36:13.702Z,4.20
2023-11-08T23:38:51.395Z,4.24
2023-11-08T23:41:18.470Z,4.30
2023-11-08T23:43:49.193Z,4.31
2023-11-08T23:46:17.228Z,4.33
2023-11-08T23:48:45.364Z,4.26
2023-11-08T23:51:14.206Z,4.28
2023-11-08T23:53:41.503Z,4.21
2023-11-08T23:56:09.100Z,4.24
2023-11-08T23:58:36.309Z,4.19
